sensor_id;sensor_type;location;lat;lon;timestamp;P1;durP1;ratioP1;P2;durP2;ratioP2
75716;SDS011;64333;50.138;14.332;2022-12-07T00:01:10;2.78;;;1.73;;
75716;SDS011;64333;50.138;14.332;2022-12-07T00:03:36;2.50;;;1.45;;
75716;SDS011;64333;50.138;14.332;2022-12-07T00:06:03;2.05;;;1.50;;
75716;SDS011;64333;50.138;14.332;2022-12-07T00:08:30;1.80;;;1.40;;
75716;SDS011;64333;50.138;14.332;2022-12-07T00:11:16;5.95;;;1.50;;
75716;SDS011;64333;50.138;14.332;2022-12-07T00:13:44;3.78;;;1.50;;
75716;SDS011;64333;50.138;14.332;2022-12-07T00:16:16;3.97;;;1.65;;
75716;SDS011;64333;50.138;14.332;2022-12-07T00:18:43;2.97;;;1.65;;
75716;SDS011;64333;50.138;14.332;2022-12-07T00:21:13;3.35;;;2.20;;
75716;SDS011;64333;50.138;14.332;2022-12-07T00:23:44;2.50;;;1.60;;
75716;SDS011;64333;50.138;14.332;2022-12-07T00:26:11;3.67;;;1.85;;
75716;SDS011;64333;50.138;14.332;2022-12-07T00:28:47;2.95;;;1.67;;
75716;SDS011;64333;50.138;14.332;2022-12-07T00:31:18;3.35;;;1.70;;
75716;SDS011;64333;50.138;14.332;2022-12-07T00:33:45;3.53;;;1.98;;
75716;SDS011;64333;50.138;14.332;2022-12-07T00:36:12;2.08;;;1.58;;
75716;SDS011;64333;50.138;14.332;2022-12-07T00:38:40;3.03;;;1.95;;
75716;SDS011;64333;50.138;14.332;2022-12-07T00:41:07;5.35;;;2.10;;
75716;SDS011;64333;50.138;14.332;2022-12-07T00:43:35;2.90;;;1.90;;
75716;SDS011;64333;50.138;14.332;2022-12-07T00:46:01;4.45;;;2.20;;
75716;SDS011;64333;50.138;14.332;2022-12-07T00:48:26;4.63;;;2.75;;
75716;SDS011;64333;50.138;14.332;2022-12-07T00:50:52;3.00;;;1.83;;
75716;SDS011;64333;50.138;14.332;2022-12-07T00:53:18;3.70;;;2.40;;
75716;SDS011;64333;50.138;14.332;2022-12-07T00:55:43;5.85;;;2.63;;
75716;SDS011;64333;50.138;14.332;2022-12-07T00:58:09;5.35;;;2.83;;
75716;SDS011;64333;50.138;14.332;2022-12-07T01:00:35;5.00;;;2.72;;
75716;SDS011;64333;50.138;14.332;2022-12-07T01:03:02;4.88;;;2.90;;
75716;SDS011;64333;50.138;14.332;2022-12-07T01:05:28;7.03;;;3.17;;
75716;SDS011;64333;50.138;14.332;2022-12-07T01:07:54;5.90;;;3.35;;
75716;SDS011;64333;50.138;14.332;2022-12-07T01:10:19;5.15;;;3.15;;
75716;SDS011;64333;50.138;14.332;2022-12-07T01:12:44;5.20;;;3.10;;
75716;SDS011;64333;50.138;14.332;2022-12-07T01:15:10;4.70;;;2.60;;
75716;SDS011;64333;50.138;14.332;2022-12-07T01:17:35;7.03;;;3.45;;
75716;SDS011;64333;50.138;14.332;2022-12-07T01:20:01;5.10;;;2.60;;
75716;SDS011;64333;50.138;14.332;2022-12-07T01:22:26;3.88;;;2.30;;
75716;SDS011;64333;50.138;14.332;2022-12-07T01:24:51;5.50;;;2.83;;
75716;SDS011;64333;50.138;14.332;2022-12-07T01:27:17;4.72;;;3.00;;
75716;SDS011;64333;50.138;14.332;2022-12-07T01:29:42;5.43;;;2.70;;
75716;SDS011;64333;50.138;14.332;2022-12-07T01:32:08;4.95;;;2.92;;
75716;SDS011;64333;50.138;14.332;2022-12-07T01:34:33;4.35;;;2.80;;
75716;SDS011;64333;50.138;14.332;2022-12-07T01:36:58;4.95;;;2.72;;
75716;SDS011;64333;50.138;14.332;2022-12-07T01:39:24;4.97;;;2.42;;
75716;SDS011;64333;50.138;14.332;2022-12-07T01:41:49;5.22;;;2.58;;
75716;SDS011;64333;50.138;14.332;2022-12-07T01:44:25;3.60;;;2.47;;
75716;SDS011;64333;50.138;14.332;2022-12-07T01:52:03;3.42;;;2.33;;
75716;SDS011;64333;50.138;14.332;2022-12-07T01:54:29;4.38;;;2.40;;
75716;SDS011;64333;50.138;14.332;2022-12-07T01:56:56;5.45;;;2.53;;
75716;SDS011;64333;50.138;14.332;2022-12-07T01:59:23;4.32;;;2.35;;
75716;SDS011;64333;50.138;14.332;2022-12-07T02:01:51;4.35;;;2.40;;
75716;SDS011;64333;50.138;14.332;2022-12-07T02:04:17;3.22;;;2.20;;
75716;SDS011;64333;50.138;14.332;2022-12-07T02:06:43;3.47;;;2.35;;
75716;SDS011;64333;50.138;14.332;2022-12-07T02:09:09;3.83;;;2.00;;
75716;SDS011;64333;50.138;14.332;2022-12-07T02:11:35;3.58;;;2.00;;
75716;SDS011;64333;50.138;14.332;2022-12-07T02:14:00;3.80;;;2.30;;
75716;SDS011;64333;50.138;14.332;2022-12-07T02:16:29;5.03;;;2.65;;
75716;SDS011;64333;50.138;14.332;2022-12-07T02:21:58;3.83;;;2.42;;
75716;SDS011;64333;50.138;14.332;2022-12-07T02:24:51;5.40;;;2.70;;
75716;SDS011;64333;50.138;14.332;2022-12-07T02:29:58;5.18;;;2.42;;
75716;SDS011;64333;50.138;14.332;2022-12-07T02:32:28;5.47;;;2.88;;
75716;SDS011;64333;50.138;14.332;2022-12-07T02:35:03;3.90;;;2.60;;
75716;SDS011;64333;50.138;14.332;2022-12-07T02:40:31;3.90;;;2.25;;
75716;SDS011;64333;50.138;14.332;2022-12-07T02:43:07;5.65;;;2.58;;
75716;SDS011;64333;50.138;14.332;2022-12-07T02:45:37;4.50;;;2.50;;
75716;SDS011;64333;50.138;14.332;2022-12-07T02:48:05;4.68;;;2.72;;
75716;SDS011;64333;50.138;14.332;2022-12-07T02:50:33;5.60;;;2.80;;
75716;SDS011;64333;50.138;14.332;2022-12-07T02:52:59;3.78;;;2.38;;
75716;SDS011;64333;50.138;14.332;2022-12-07T02:55:27;4.05;;;2.42;;
75716;SDS011;64333;50.138;14.332;2022-12-07T02:58:01;4.15;;;2.78;;
75716;SDS011;64333;50.138;14.332;2022-12-07T03:00:59;4.40;;;2.55;;
75716;SDS011;64333;50.138;14.332;2022-12-07T03:03:28;4.43;;;2.25;;
75716;SDS011;64333;50.138;14.332;2022-12-07T03:08:43;4.47;;;2.85;;
75716;SDS011;64333;50.138;14.332;2022-12-07T03:11:10;4.40;;;2.40;;
75716;SDS011;64333;50.138;14.332;2022-12-07T03:14:20;4.53;;;2.92;;
75716;SDS011;64333;50.138;14.332;2022-12-07T03:16:53;4.72;;;2.65;;
75716;SDS011;64333;50.138;14.332;2022-12-07T03:19:25;4.03;;;2.47;;
75716;SDS011;64333;50.138;14.332;2022-12-07T03:22:01;4.18;;;2.67;;
75716;SDS011;64333;50.138;14.332;2022-12-07T03:24:35;4.00;;;2.35;;
75716;SDS011;64333;50.138;14.332;2022-12-07T03:27:16;4.65;;;2.63;;
75716;SDS011;64333;50.138;14.332;2022-12-07T03:29:48;3.70;;;3.00;;
75716;SDS011;64333;50.138;14.332;2022-12-07T03:32:25;3.63;;;2.85;;
75716;SDS011;64333;50.138;14.332;2022-12-07T03:37:41;5.03;;;2.95;;
75716;SDS011;64333;50.138;14.332;2022-12-07T03:40:35;4.68;;;2.83;;
75716;SDS011;64333;50.138;14.332;2022-12-07T03:43:04;3.97;;;2.83;;
75716;SDS011;64333;50.138;14.332;2022-12-07T03:45:40;5.03;;;3.50;;
75716;SDS011;64333;50.138;14.332;2022-12-07T03:53:54;7.28;;;3.13;;
75716;SDS011;64333;50.138;14.332;2022-12-07T03:56:23;5.47;;;3.03;;
75716;SDS011;64333;50.138;14.332;2022-12-07T03:58:51;5.15;;;3.45;;
75716;SDS011;64333;50.138;14.332;2022-12-07T04:01:17;4.88;;;2.92;;
75716;SDS011;64333;50.138;14.332;2022-12-07T04:03:43;4.32;;;2.70;;
75716;SDS011;64333;50.138;14.332;2022-12-07T04:06:08;4.18;;;2.80;;
75716;SDS011;64333;50.138;14.332;2022-12-07T04:08:34;4.72;;;2.83;;
75716;SDS011;64333;50.138;14.332;2022-12-07T04:10:59;5.68;;;3.42;;
75716;SDS011;64333;50.138;14.332;2022-12-07T04:13:24;5.95;;;3.40;;
75716;SDS011;64333;50.138;14.332;2022-12-07T04:15:50;4.13;;;2.72;;
75716;SDS011;64333;50.138;14.332;2022-12-07T04:18:15;5.65;;;3.65;;
75716;SDS011;64333;50.138;14.332;2022-12-07T04:20:40;4.75;;;3.28;;
75716;SDS011;64333;50.138;14.332;2022-12-07T04:23:06;5.50;;;3.47;;
75716;SDS011;64333;50.138;14.332;2022-12-07T04:25:31;5.30;;;2.80;;
75716;SDS011;64333;50.138;14.332;2022-12-07T04:27:57;4.53;;;3.08;;
75716;SDS011;64333;50.138;14.332;2022-12-07T04:30:22;5.20;;;3.00;;
75716;SDS011;64333;50.138;14.332;2022-12-07T04:32:47;5.28;;;3.65;;
75716;SDS011;64333;50.138;14.332;2022-12-07T04:35:13;5.47;;;3.22;;
75716;SDS011;64333;50.138;14.332;2022-12-07T04:37:38;6.03;;;3.70;;
75716;SDS011;64333;50.138;14.332;2022-12-07T04:40:07;5.63;;;3.50;;
75716;SDS011;64333;50.138;14.332;2022-12-07T04:42:35;5.70;;;3.67;;
75716;SDS011;64333;50.138;14.332;2022-12-07T04:45:01;5.47;;;3.35;;
75716;SDS011;64333;50.138;14.332;2022-12-07T04:47:26;6.57;;;3.85;;
75716;SDS011;64333;50.138;14.332;2022-12-07T04:49:52;6.82;;;3.70;;
75716;SDS011;64333;50.138;14.332;2022-12-07T04:52:17;7.43;;;4.38;;
75716;SDS011;64333;50.138;14.332;2022-12-07T04:54:42;6.90;;;4.13;;
75716;SDS011;64333;50.138;14.332;2022-12-07T04:57:08;7.32;;;4.13;;
75716;SDS011;64333;50.138;14.332;2022-12-07T04:59:33;7.35;;;4.13;;
75716;SDS011;64333;50.138;14.332;2022-12-07T05:01:58;8.93;;;4.15;;
75716;SDS011;64333;50.138;14.332;2022-12-07T05:04:24;9.32;;;4.65;;
75716;SDS011;64333;50.138;14.332;2022-12-07T05:06:49;8.18;;;4.28;;
75716;SDS011;64333;50.138;14.332;2022-12-07T05:09:15;6.28;;;3.45;;
75716;SDS011;64333;50.138;14.332;2022-12-07T05:11:40;6.15;;;3.50;;
75716;SDS011;64333;50.138;14.332;2022-12-07T05:14:07;8.95;;;4.85;;
75716;SDS011;64333;50.138;14.332;2022-12-07T05:16:36;7.88;;;4.50;;
75716;SDS011;64333;50.138;14.332;2022-12-07T05:19:02;6.07;;;3.83;;
75716;SDS011;64333;50.138;14.332;2022-12-07T05:21:28;8.85;;;4.93;;
75716;SDS011;64333;50.138;14.332;2022-12-07T05:23:54;9.88;;;4.53;;
75716;SDS011;64333;50.138;14.332;2022-12-07T05:26:19;7.32;;;4.03;;
75716;SDS011;64333;50.138;14.332;2022-12-07T05:28:45;5.70;;;3.60;;
75716;SDS011;64333;50.138;14.332;2022-12-07T05:31:15;9.25;;;4.65;;
75716;SDS011;64333;50.138;14.332;2022-12-07T05:33:40;7.40;;;3.67;;
75716;SDS011;64333;50.138;14.332;2022-12-07T05:36:06;6.93;;;3.75;;
75716;SDS011;64333;50.138;14.332;2022-12-07T05:38:32;7.55;;;4.22;;
75716;SDS011;64333;50.138;14.332;2022-12-07T05:41:05;6.95;;;4.38;;
75716;SDS011;64333;50.138;14.332;2022-12-07T05:43:31;7.45;;;4.45;;
75716;SDS011;64333;50.138;14.332;2022-12-07T05:45:57;8.52;;;4.25;;
75716;SDS011;64333;50.138;14.332;2022-12-07T05:48:23;8.13;;;4.13;;
75716;SDS011;64333;50.138;14.332;2022-12-07T05:50:49;8.10;;;4.30;;
75716;SDS011;64333;50.138;14.332;2022-12-07T05:53:15;8.27;;;5.10;;
75716;SDS011;64333;50.138;14.332;2022-12-07T05:55:40;7.72;;;4.18;;
75716;SDS011;64333;50.138;14.332;2022-12-07T05:58:05;6.30;;;3.35;;
75716;SDS011;64333;50.138;14.332;2022-12-07T06:00:49;8.32;;;4.25;;
75716;SDS011;64333;50.138;14.332;2022-12-07T06:03:15;7.10;;;4.00;;
75716;SDS011;64333;50.138;14.332;2022-12-07T06:05:40;8.00;;;3.55;;
75716;SDS011;64333;50.138;14.332;2022-12-07T06:08:06;7.72;;;3.60;;
75716;SDS011;64333;50.138;14.332;2022-12-07T06:10:32;9.10;;;4.85;;
75716;SDS011;64333;50.138;14.332;2022-12-07T06:12:57;7.97;;;4.63;;
75716;SDS011;64333;50.138;14.332;2022-12-07T06:15:22;7.03;;;3.92;;
75716;SDS011;64333;50.138;14.332;2022-12-07T06:17:48;7.22;;;4.10;;
75716;SDS011;64333;50.138;14.332;2022-12-07T06:20:13;8.55;;;4.30;;
75716;SDS011;64333;50.138;14.332;2022-12-07T06:22:39;7.85;;;4.57;;
75716;SDS011;64333;50.138;14.332;2022-12-07T06:25:04;7.70;;;4.43;;
75716;SDS011;64333;50.138;14.332;2022-12-07T06:27:30;8.43;;;5.13;;
75716;SDS011;64333;50.138;14.332;2022-12-07T06:29:57;8.32;;;4.30;;
75716;SDS011;64333;50.138;14.332;2022-12-07T06:32:22;7.65;;;3.97;;
75716;SDS011;64333;50.138;14.332;2022-12-07T06:34:48;7.38;;;3.90;;
75716;SDS011;64333;50.138;14.332;2022-12-07T06:37:13;7.70;;;4.22;;
75716;SDS011;64333;50.138;14.332;2022-12-07T06:39:38;6.65;;;3.85;;
75716;SDS011;64333;50.138;14.332;2022-12-07T06:42:04;7.15;;;4.35;;
75716;SDS011;64333;50.138;14.332;2022-12-07T06:44:29;7.80;;;4.50;;
75716;SDS011;64333;50.138;14.332;2022-12-07T06:46:54;8.30;;;4.13;;
75716;SDS011;64333;50.138;14.332;2022-12-07T06:49:20;7.20;;;4.10;;
75716;SDS011;64333;50.138;14.332;2022-12-07T06:51:45;8.52;;;4.70;;
75716;SDS011;64333;50.138;14.332;2022-12-07T06:54:11;7.15;;;3.92;;
75716;SDS011;64333;50.138;14.332;2022-12-07T06:56:38;6.57;;;4.05;;
75716;SDS011;64333;50.138;14.332;2022-12-07T06:59:04;6.78;;;4.20;;
75716;SDS011;64333;50.138;14.332;2022-12-07T07:01:31;7.50;;;3.75;;
75716;SDS011;64333;50.138;14.332;2022-12-07T07:03:57;6.70;;;3.85;;
75716;SDS011;64333;50.138;14.332;2022-12-07T07:06:22;8.02;;;3.88;;
75716;SDS011;64333;50.138;14.332;2022-12-07T07:08:48;7.22;;;4.32;;
75716;SDS011;64333;50.138;14.332;2022-12-07T07:11:13;7.35;;;3.80;;
75716;SDS011;64333;50.138;14.332;2022-12-07T07:13:38;6.80;;;3.63;;
75716;SDS011;64333;50.138;14.332;2022-12-07T07:16:04;5.57;;;3.22;;
75716;SDS011;64333;50.138;14.332;2022-12-07T07:18:31;7.20;;;3.50;;
75716;SDS011;64333;50.138;14.332;2022-12-07T07:20:56;5.13;;;3.13;;
75716;SDS011;64333;50.138;14.332;2022-12-07T07:23:22;7.50;;;3.80;;
75716;SDS011;64333;50.138;14.332;2022-12-07T07:25:47;4.90;;;2.50;;
75716;SDS011;64333;50.138;14.332;2022-12-07T07:28:13;5.43;;;3.00;;
75716;SDS011;64333;50.138;14.332;2022-12-07T07:30:39;7.00;;;3.47;;
75716;SDS011;64333;50.138;14.332;2022-12-07T07:33:04;6.20;;;3.28;;
75716;SDS011;64333;50.138;14.332;2022-12-07T07:35:31;5.85;;;3.17;;
75716;SDS011;64333;50.138;14.332;2022-12-07T07:37:58;4.15;;;2.47;;
75716;SDS011;64333;50.138;14.332;2022-12-07T07:40:24;5.07;;;2.55;;
75716;SDS011;64333;50.138;14.332;2022-12-07T07:42:50;5.82;;;3.10;;
75716;SDS011;64333;50.138;14.332;2022-12-07T07:45:17;4.93;;;2.83;;
75716;SDS011;64333;50.138;14.332;2022-12-07T07:47:43;4.05;;;2.85;;
75716;SDS011;64333;50.138;14.332;2022-12-07T07:50:09;3.97;;;2.45;;
75716;SDS011;64333;50.138;14.332;2022-12-07T07:52:34;3.95;;;2.60;;
75716;SDS011;64333;50.138;14.332;2022-12-07T07:55:00;4.45;;;2.67;;
75716;SDS011;64333;50.138;14.332;2022-12-07T07:57:25;4.28;;;2.70;;
75716;SDS011;64333;50.138;14.332;2022-12-07T07:59:50;4.68;;;3.00;;
75716;SDS011;64333;50.138;14.332;2022-12-07T08:02:17;4.13;;;2.83;;
75716;SDS011;64333;50.138;14.332;2022-12-07T08:04:44;5.15;;;2.88;;
75716;SDS011;64333;50.138;14.332;2022-12-07T08:07:10;5.63;;;3.17;;
75716;SDS011;64333;50.138;14.332;2022-12-07T08:09:36;4.32;;;2.83;;
75716;SDS011;64333;50.138;14.332;2022-12-07T08:12:01;5.63;;;2.85;;
75716;SDS011;64333;50.138;14.332;2022-12-07T08:14:27;5.05;;;2.97;;
75716;SDS011;64333;50.138;14.332;2022-12-07T08:16:53;4.57;;;2.95;;
75716;SDS011;64333;50.138;14.332;2022-12-07T08:19:19;4.07;;;2.67;;
75716;SDS011;64333;50.138;14.332;2022-12-07T08:21:45;6.45;;;3.60;;
75716;SDS011;64333;50.138;14.332;2022-12-07T08:24:10;4.82;;;3.03;;
75716;SDS011;64333;50.138;14.332;2022-12-07T08:26:36;6.72;;;3.58;;
75716;SDS011;64333;50.138;14.332;2022-12-07T08:29:01;6.75;;;3.58;;
75716;SDS011;64333;50.138;14.332;2022-12-07T08:31:27;6.28;;;4.00;;
75716;SDS011;64333;50.138;14.332;2022-12-07T08:33:53;6.60;;;4.25;;
75716;SDS011;64333;50.138;14.332;2022-12-07T08:36:19;6.50;;;3.47;;
75716;SDS011;64333;50.138;14.332;2022-12-07T08:38:44;6.05;;;3.40;;
75716;SDS011;64333;50.138;14.332;2022-12-07T08:41:10;7.05;;;4.40;;
75716;SDS011;64333;50.138;14.332;2022-12-07T08:43:35;6.53;;;3.72;;
75716;SDS011;64333;50.138;14.332;2022-12-07T08:49:04;7.00;;;3.88;;
75716;SDS011;64333;50.138;14.332;2022-12-07T08:51:36;7.75;;;4.25;;
75716;SDS011;64333;50.138;14.332;2022-12-07T08:54:03;6.72;;;4.07;;
75716;SDS011;64333;50.138;14.332;2022-12-07T08:56:31;6.15;;;3.75;;
75716;SDS011;64333;50.138;14.332;2022-12-07T08:58:57;7.80;;;4.22;;
75716;SDS011;64333;50.138;14.332;2022-12-07T09:01:23;6.63;;;3.53;;
75716;SDS011;64333;50.138;14.332;2022-12-07T09:03:48;6.47;;;3.80;;
75716;SDS011;64333;50.138;14.332;2022-12-07T09:06:13;6.57;;;5.18;;
75716;SDS011;64333;50.138;14.332;2022-12-07T09:08:40;8.73;;;3.95;;
75716;SDS011;64333;50.138;14.332;2022-12-07T09:11:10;6.18;;;4.10;;
75716;SDS011;64333;50.138;14.332;2022-12-07T09:13:35;6.93;;;3.80;;
75716;SDS011;64333;50.138;14.332;2022-12-07T09:16:01;7.65;;;4.40;;
75716;SDS011;64333;50.138;14.332;2022-12-07T09:18:27;6.43;;;4.43;;
75716;SDS011;64333;50.138;14.332;2022-12-07T09:20:52;8.13;;;5.03;;
75716;SDS011;64333;50.138;14.332;2022-12-07T09:23:17;6.53;;;4.32;;
75716;SDS011;64333;50.138;14.332;2022-12-07T09:25:43;7.80;;;4.40;;
75716;SDS011;64333;50.138;14.332;2022-12-07T09:28:08;7.65;;;4.50;;
75716;SDS011;64333;50.138;14.332;2022-12-07T09:30:34;9.38;;;4.65;;
75716;SDS011;64333;50.138;14.332;2022-12-07T09:33:00;7.63;;;4.70;;
75716;SDS011;64333;50.138;14.332;2022-12-07T09:35:25;7.57;;;4.25;;
75716;SDS011;64333;50.138;14.332;2022-12-07T09:37:51;7.63;;;4.88;;
75716;SDS011;64333;50.138;14.332;2022-12-07T09:40:17;7.03;;;4.55;;
75716;SDS011;64333;50.138;14.332;2022-12-07T09:42:45;6.47;;;3.92;;
75716;SDS011;64333;50.138;14.332;2022-12-07T09:45:16;7.70;;;4.35;;
75716;SDS011;64333;50.138;14.332;2022-12-07T09:47:46;8.40;;;4.63;;
75716;SDS011;64333;50.138;14.332;2022-12-07T09:50:13;7.55;;;4.47;;
75716;SDS011;64333;50.138;14.332;2022-12-07T09:52:42;7.35;;;4.47;;
75716;SDS011;64333;50.138;14.332;2022-12-07T09:55:11;6.97;;;4.07;;
75716;SDS011;64333;50.138;14.332;2022-12-07T09:57:53;6.85;;;4.55;;
75716;SDS011;64333;50.138;14.332;2022-12-07T10:00:20;8.82;;;4.88;;
75716;SDS011;64333;50.138;14.332;2022-12-07T10:02:49;7.05;;;4.80;;
75716;SDS011;64333;50.138;14.332;2022-12-07T10:05:30;7.22;;;4.25;;
75716;SDS011;64333;50.138;14.332;2022-12-07T10:07:59;8.57;;;4.93;;
75716;SDS011;64333;50.138;14.332;2022-12-07T10:10:26;6.43;;;4.55;;
75716;SDS011;64333;50.138;14.332;2022-12-07T10:13:34;6.53;;;4.35;;
75716;SDS011;64333;50.138;14.332;2022-12-07T10:15:55;8.15;;;4.63;;
75716;SDS011;64333;50.138;14.332;2022-12-07T10:18:32;6.07;;;4.43;;
75716;SDS011;64333;50.138;14.332;2022-12-07T10:21:04;6.80;;;4.32;;
75716;SDS011;64333;50.138;14.332;2022-12-07T10:23:34;8.40;;;4.82;;
75716;SDS011;64333;50.138;14.332;2022-12-07T10:26:18;9.13;;;5.20;;
75716;SDS011;64333;50.138;14.332;2022-12-07T10:29:19;7.47;;;4.82;;
75716;SDS011;64333;50.138;14.332;2022-12-07T10:31:45;9.05;;;4.88;;
75716;SDS011;64333;50.138;14.332;2022-12-07T10:36:49;7.63;;;5.10;;
75716;SDS011;64333;50.138;14.332;2022-12-07T10:41:54;8.23;;;5.10;;
75716;SDS011;64333;50.138;14.332;2022-12-07T10:44:22;7.22;;;4.00;;
75716;SDS011;64333;50.138;14.332;2022-12-07T10:49:49;7.55;;;4.78;;
75716;SDS011;64333;50.138;14.332;2022-12-07T10:52:53;7.70;;;4.45;;
75716;SDS011;64333;50.138;14.332;2022-12-07T10:55:53;7.32;;;4.53;;
75716;SDS011;64333;50.138;14.332;2022-12-07T10:58:52;7.57;;;4.53;;
75716;SDS011;64333;50.138;14.332;2022-12-07T11:04:12;5.88;;;3.95;;
75716;SDS011;64333;50.138;14.332;2022-12-07T11:06:51;5.78;;;3.65;;
75716;SDS011;64333;50.138;14.332;2022-12-07T11:12:41;6.38;;;4.10;;
75716;SDS011;64333;50.138;14.332;2022-12-07T11:15:31;9.40;;;4.20;;
75716;SDS011;64333;50.138;14.332;2022-12-07T11:21:24;7.88;;;4.75;;
75716;SDS011;64333;50.138;14.332;2022-12-07T11:24:08;7.50;;;4.53;;
75716;SDS011;64333;50.138;14.332;2022-12-07T11:26:41;7.15;;;4.15;;
75716;SDS011;64333;50.138;14.332;2022-12-07T11:32:15;6.72;;;4.18;;
75716;SDS011;64333;50.138;14.332;2022-12-07T11:37:36;7.60;;;4.35;;
75716;SDS011;64333;50.138;14.332;2022-12-07T11:40:04;6.43;;;4.22;;
75716;SDS011;64333;50.138;14.332;2022-12-07T11:42:41;6.85;;;4.40;;
75716;SDS011;64333;50.138;14.332;2022-12-07T11:45:22;7.13;;;4.85;;
75716;SDS011;64333;50.138;14.332;2022-12-07T11:48:03;5.85;;;3.97;;
75716;SDS011;64333;50.138;14.332;2022-12-07T11:50:44;5.68;;;3.58;;
75716;SDS011;64333;50.138;14.332;2022-12-07T12:03:35;5.18;;;3.22;;
75716;SDS011;64333;50.138;14.332;2022-12-07T12:08:31;3.95;;;2.90;;
75716;SDS011;64333;50.138;14.332;2022-12-07T12:21:57;5.28;;;2.75;;
75716;SDS011;64333;50.138;14.332;2022-12-07T12:24:31;4.57;;;2.70;;
75716;SDS011;64333;50.138;14.332;2022-12-07T12:27:02;4.18;;;2.78;;
75716;SDS011;64333;50.138;14.332;2022-12-07T12:29:32;3.63;;;2.17;;
75716;SDS011;64333;50.138;14.332;2022-12-07T12:38:01;4.00;;;2.55;;
75716;SDS011;64333;50.138;14.332;2022-12-07T12:42:47;3.15;;;2.35;;
75716;SDS011;64333;50.138;14.332;2022-12-07T12:47:52;5.15;;;2.53;;
75716;SDS011;64333;50.138;14.332;2022-12-07T12:50:24;3.28;;;2.50;;
75716;SDS011;64333;50.138;14.332;2022-12-07T12:55:54;3.40;;;2.38;;
75716;SDS011;64333;50.138;14.332;2022-12-07T12:58:36;3.85;;;2.17;;
75716;SDS011;64333;50.138;14.332;2022-12-07T13:04:14;4.50;;;2.47;;
75716;SDS011;64333;50.138;14.332;2022-12-07T13:06:48;3.85;;;2.45;;
75716;SDS011;64333;50.138;14.332;2022-12-07T13:09:22;4.55;;;2.00;;
75716;SDS011;64333;50.138;14.332;2022-12-07T13:11:55;3.28;;;2.30;;
75716;SDS011;64333;50.138;14.332;2022-12-07T13:17:04;4.10;;;2.13;;
75716;SDS011;64333;50.138;14.332;2022-12-07T13:25:11;2.63;;;1.50;;
75716;SDS011;64333;50.138;14.332;2022-12-07T13:27:46;2.60;;;1.85;;
75716;SDS011;64333;50.138;14.332;2022-12-07T13:30:21;5.63;;;2.80;;
75716;SDS011;64333;50.138;14.332;2022-12-07T13:32:56;5.35;;;3.08;;
75716;SDS011;64333;50.138;14.332;2022-12-07T13:35:27;6.68;;;2.60;;
75716;SDS011;64333;50.138;14.332;2022-12-07T13:38:15;3.25;;;1.80;;
75716;SDS011;64333;50.138;14.332;2022-12-07T13:44:09;4.22;;;1.98;;
75716;SDS011;64333;50.138;14.332;2022-12-07T13:51:50;4.10;;;2.58;;
75716;SDS011;64333;50.138;14.332;2022-12-07T13:54:17;3.25;;;1.65;;
75716;SDS011;64333;50.138;14.332;2022-12-07T13:56:43;4.47;;;2.08;;
75716;SDS011;64333;50.138;14.332;2022-12-07T13:59:16;3.72;;;2.03;;
75716;SDS011;64333;50.138;14.332;2022-12-07T14:01:46;5.32;;;2.58;;
75716;SDS011;64333;50.138;14.332;2022-12-07T14:04:16;2.95;;;2.20;;
75716;SDS011;64333;50.138;14.332;2022-12-07T14:07:00;3.28;;;2.20;;
75716;SDS011;64333;50.138;14.332;2022-12-07T14:12:18;3.58;;;2.03;;
75716;SDS011;64333;50.138;14.332;2022-12-07T14:14:46;5.15;;;2.33;;
75716;SDS011;64333;50.138;14.332;2022-12-07T14:17:17;3.78;;;2.67;;
75716;SDS011;64333;50.138;14.332;2022-12-07T14:19:48;4.65;;;2.58;;
75716;SDS011;64333;50.138;14.332;2022-12-07T14:22:18;3.67;;;2.53;;
75716;SDS011;64333;50.138;14.332;2022-12-07T14:24:47;4.18;;;2.58;;
75716;SDS011;64333;50.138;14.332;2022-12-07T14:27:22;4.70;;;2.72;;
75716;SDS011;64333;50.138;14.332;2022-12-07T14:29:55;5.55;;;2.97;;
75716;SDS011;64333;50.138;14.332;2022-12-07T14:32:22;4.65;;;2.78;;
75716;SDS011;64333;50.138;14.332;2022-12-07T14:37:26;5.30;;;3.13;;
75716;SDS011;64333;50.138;14.332;2022-12-07T14:39:52;7.13;;;3.85;;
75716;SDS011;64333;50.138;14.332;2022-12-07T14:42:18;5.25;;;2.88;;
75716;SDS011;64333;50.138;14.332;2022-12-07T14:44:44;5.18;;;3.03;;
75716;SDS011;64333;50.138;14.332;2022-12-07T14:47:10;5.45;;;3.70;;
75716;SDS011;64333;50.138;14.332;2022-12-07T14:49:36;6.43;;;3.65;;
75716;SDS011;64333;50.138;14.332;2022-12-07T14:52:01;6.90;;;3.63;;
75716;SDS011;64333;50.138;14.332;2022-12-07T14:54:27;7.78;;;3.95;;
75716;SDS011;64333;50.138;14.332;2022-12-07T14:56:58;8.95;;;4.85;;
75716;SDS011;64333;50.138;14.332;2022-12-07T14:59:24;6.47;;;3.90;;
75716;SDS011;64333;50.138;14.332;2022-12-07T15:01:49;6.35;;;4.13;;
75716;SDS011;64333;50.138;14.332;2022-12-07T15:04:15;6.93;;;3.97;;
75716;SDS011;64333;50.138;14.332;2022-12-07T15:06:40;6.40;;;3.92;;
75716;SDS011;64333;50.138;14.332;2022-12-07T15:09:08;8.95;;;5.03;;
75716;SDS011;64333;50.138;14.332;2022-12-07T15:11:35;10.02;;;5.90;;
75716;SDS011;64333;50.138;14.332;2022-12-07T15:14:00;6.57;;;3.92;;
75716;SDS011;64333;50.138;14.332;2022-12-07T15:16:38;6.68;;;4.03;;
75716;SDS011;64333;50.138;14.332;2022-12-07T15:19:10;9.93;;;5.07;;
75716;SDS011;64333;50.138;14.332;2022-12-07T15:24:02;9.00;;;4.60;;
75716;SDS011;64333;50.138;14.332;2022-12-07T15:26:27;5.45;;;3.47;;
75716;SDS011;64333;50.138;14.332;2022-12-07T15:28:53;6.10;;;3.28;;
75716;SDS011;64333;50.138;14.332;2022-12-07T15:31:19;7.93;;;4.32;;
75716;SDS011;64333;50.138;14.332;2022-12-07T15:33:44;6.97;;;3.75;;
75716;SDS011;64333;50.138;14.332;2022-12-07T15:36:43;6.72;;;4.07;;
75716;SDS011;64333;50.138;14.332;2022-12-07T15:39:01;8.88;;;4.45;;
75716;SDS011;64333;50.138;14.332;2022-12-07T15:41:27;8.07;;;3.85;;
75716;SDS011;64333;50.138;14.332;2022-12-07T15:43:53;6.35;;;3.85;;
75716;SDS011;64333;50.138;14.332;2022-12-07T15:49:22;5.60;;;3.25;;
75716;SDS011;64333;50.138;14.332;2022-12-07T15:51:47;6.30;;;3.47;;
75716;SDS011;64333;50.138;14.332;2022-12-07T15:54:18;6.32;;;3.95;;
75716;SDS011;64333;50.138;14.332;2022-12-07T15:56:48;5.78;;;4.00;;
75716;SDS011;64333;50.138;14.332;2022-12-07T15:59:14;5.28;;;3.25;;
75716;SDS011;64333;50.138;14.332;2022-12-07T16:01:40;5.53;;;3.05;;
75716;SDS011;64333;50.138;14.332;2022-12-07T16:04:05;5.38;;;3.65;;
75716;SDS011;64333;50.138;14.332;2022-12-07T16:06:31;6.45;;;3.70;;
75716;SDS011;64333;50.138;14.332;2022-12-07T16:08:56;5.03;;;3.53;;
75716;SDS011;64333;50.138;14.332;2022-12-07T16:11:22;8.43;;;4.40;;
75716;SDS011;64333;50.138;14.332;2022-12-07T16:13:47;7.20;;;3.20;;
75716;SDS011;64333;50.138;14.332;2022-12-07T16:16:14;6.57;;;3.50;;
75716;SDS011;64333;50.138;14.332;2022-12-07T16:18:41;6.85;;;3.47;;
75716;SDS011;64333;50.138;14.332;2022-12-07T16:21:08;7.90;;;3.45;;
75716;SDS011;64333;50.138;14.332;2022-12-07T16:23:33;5.38;;;3.30;;
75716;SDS011;64333;50.138;14.332;2022-12-07T16:26:03;6.40;;;3.13;;
75716;SDS011;64333;50.138;14.332;2022-12-07T16:28:43;4.85;;;3.03;;
75716;SDS011;64333;50.138;14.332;2022-12-07T16:31:10;5.97;;;2.65;;
75716;SDS011;64333;50.138;14.332;2022-12-07T16:33:37;4.65;;;3.05;;
75716;SDS011;64333;50.138;14.332;2022-12-07T16:36:05;7.10;;;4.05;;
75716;SDS011;64333;50.138;14.332;2022-12-07T16:38:32;5.68;;;2.88;;
75716;SDS011;64333;50.138;14.332;2022-12-07T16:40:58;7.03;;;4.07;;
75716;SDS011;64333;50.138;14.332;2022-12-07T16:43:23;7.30;;;3.70;;